Time;durP1;ratioP1;P1;durP2;ratioP2;P2;SDS_P1;SDS_P2;PMS_P1;PMS_P2;Temp;Humidity;BMP_temperature;BMP_pressure;BME280_temperature;BME280_humidity;BME280_pressure;Samples;Min_cycle;Max_cycle;Signal;HPM_P1;HPM_P2
2023/12/01 00:01:40;;;;;;;;;;;2.90;99.90;;;;;;5080178;28;19990;-80
2023/12/01 00:04:06;;;;;;;;;;;2.90;99.90;;;;;;5083590;28;19991;-80
2023/12/01 00:06:33;;;;;;;;;;;2.90;99.90;;;;;;5090641;28;19975;-81
2023/12/01 00:09:00;;;;;;;;;;;2.90;99.90;;;;;;5090738;28;19983;-81
2023/12/01 00:11:27;;;;;;;;;;;2.80;99.90;;;;;;5084488;28;19994;-80
2023/12/01 00:13:53;;;;;;;;;;;2.80;99.90;;;;;;5087154;28;19991;-80
2023/12/01 00:16:20;;;;;;;;;;;2.80;99.90;;;;;;5084078;28;20010;-81
2023/12/01 00:18:47;;;;;;;;;;;2.80;99.90;;;;;;5092918;28;19975;-79
2023/12/01 00:21:13;;;;;;;;;;;2.80;99.90;;;;;;5089294;28;19980;-80
2023/12/01 00:23:40;;;;;;;;;;;2.80;99.90;;;;;;5089635;28;20376;-79
2023/12/01 00:26:08;;;;;;;;;;;2.80;99.90;;;;;;5093806;28;19975;-80
2023/12/01 00:28:35;;;;;;;;;;;2.80;99.90;;;;;;5087527;28;20077;-80
2023/12/01 00:31:02;;;;;;;;;;;2.80;99.90;;;;;;5082888;28;20642;-79
2023/12/01 00:33:28;;;;;;;;;;;2.80;99.90;;;;;;5090822;28;19984;-80
2023/12/01 00:35:55;;;;;;;;;;;2.80;99.90;;;;;;5087137;28;20087;-79
2023/12/01 00:38:21;;;;;;;;;;;2.80;99.90;;;;;;5091692;28;19982;-79
2023/12/01 00:40:48;;;;;;;;;;;2.80;99.90;;;;;;5086297;28;19983;-79
2023/12/01 00:43:16;;;;;;;;;;;2.80;99.90;;;;;;5093444;28;19975;-80
2023/12/01 00:45:42;;;;;;;;;;;2.80;99.90;;;;;;5091910;28;19995;-80
2023/12/01 00:48:09;;;;;;;;;;;2.80;99.90;;;;;;5089762;28;19981;-81
2023/12/01 00:50:35;;;;;;;;;;;2.80;99.90;;;;;;5094551;28;19979;-80
2023/12/01 00:53:02;;;;;;;;;;;2.80;99.90;;;;;;5094222;28;20433;-80
2023/12/01 00:55:28;;;;;;;;;;;2.80;99.90;;;;;;5093087;28;19998;-80
2023/12/01 00:57:55;;;;;;;;;;;2.80;99.90;;;;;;5091971;28;19983;-80
2023/12/01 01:00:23;;;;;;;;;;;2.80;99.90;;;;;;5091471;28;19980;-79
2023/12/01 01:02:50;;;;;;;;;;;2.80;99.90;;;;;;5077740;28;19987;-80
2023/12/01 01:05:16;;;;;;;;;;;2.80;99.90;;;;;;5078129;28;20073;-80
2023/12/01 01:07:43;;;;;;;;;;;2.80;99.90;;;;;;5080256;28;19979;-79
2023/12/01 01:10:10;;;;;;;;;;;2.80;99.90;;;;;;5079968;28;19986;-79
2023/12/01 01:12:36;;;;;;;;;;;2.80;99.90;;;;;;5079683;28;19991;-80
2023/12/01 01:15:03;;;;;;;;;;;2.70;99.90;;;;;;5079427;28;19999;-79
2023/12/01 01:17:32;;;;;;;;;;;2.70;99.90;;;;;;5085729;28;19991;-79
2023/12/01 01:19:59;;;;;;;;;;;2.70;99.90;;;;;;5086822;28;19986;-80
2023/12/01 01:22:25;;;;;;;;;;;2.80;99.90;;;;;;5086025;28;19975;-79
2023/12/01 01:24:52;;;;;;;;;;;2.70;99.90;;;;;;5085675;28;19991;-80
2023/12/01 01:27:18;;;;;;;;;;;2.70;99.90;;;;;;5082134;28;19983;-80
2023/12/01 01:29:45;;;;;;;;;;;2.70;99.90;;;;;;5076373;28;19979;-79
2023/12/01 01:32:12;;;;;;;;;;;2.70;99.90;;;;;;5088400;28;19999;-80
2023/12/01 01:34:40;;;;;;;;;;;2.70;99.90;;;;;;5097322;28;20605;-80
2023/12/01 01:37:07;;;;;;;;;;;2.70;99.90;;;;;;5097038;28;19995;-80
2023/12/01 01:39:34;;;;;;;;;;;2.70;99.90;;;;;;5097438;28;19982;-80
2023/12/01 01:42:01;;;;;;;;;;;2.70;99.90;;;;;;5094181;28;20010;-81
2023/12/01 01:44:27;;;;;;;;;;;2.70;99.90;;;;;;5093642;28;20002;-79
2023/12/01 01:46:55;;;;;;;;;;;2.70;99.90;;;;;;5080363;28;19998;-79
2023/12/01 01:49:25;;;;;;;;;;;2.70;99.90;;;;;;5070768;28;20500;-79
2023/12/01 01:51:53;;;;;;;;;;;2.70;99.90;;;;;;5065890;28;20021;-78
2023/12/01 01:54:22;;;;;;;;;;;2.70;99.90;;;;;;5068866;28;19987;-80
2023/12/01 01:56:49;;;;;;;;;;;2.70;99.90;;;;;;5069874;28;20002;-79
2023/12/01 01:59:19;;;;;;;;;;;2.70;99.90;;;;;;5067908;28;19979;-80
2023/12/01 02:01:46;;;;;;;;;;;2.70;99.90;;;;;;5063620;28;20381;-80
2023/12/01 02:04:13;;;;;;;;;;;2.70;99.90;;;;;;5060281;28;19998;-79
2023/12/01 02:06:39;;;;;;;;;;;2.70;99.90;;;;;;5059664;28;19982;-80
2023/12/01 02:09:07;;;;;;;;;;;2.70;99.90;;;;;;5063347;28;19987;-80
2023/12/01 02:11:34;;;;;;;;;;;2.70;99.90;;;;;;5061011;28;19983;-80
2023/12/01 02:14:00;;;;;;;;;;;2.70;99.90;;;;;;5062197;28;19999;-80
2023/12/01 02:16:28;;;;;;;;;;;2.70;99.90;;;;;;5062747;28;19995;-79
2023/12/01 02:18:55;;;;;;;;;;;2.70;99.90;;;;;;5061549;28;19981;-78
2023/12/01 02:21:24;;;;;;;;;;;2.70;99.90;;;;;;5064163;28;19979;-79
2023/12/01 02:23:52;;;;;;;;;;;2.70;99.90;;;;;;5063851;28;20656;-80
2023/12/01 02:26:19;;;;;;;;;;;2.70;99.90;;;;;;5064266;28;19975;-79
2023/12/01 02:28:46;;;;;;;;;;;2.70;99.90;;;;;;5061107;28;19986;-79
2023/12/01 02:31:13;;;;;;;;;;;2.70;99.90;;;;;;5062216;28;19991;-79
2023/12/01 02:33:39;;;;;;;;;;;2.70;99.90;;;;;;5064270;28;19989;-81
2023/12/01 02:36:08;;;;;;;;;;;2.70;99.90;;;;;;5060587;28;20116;-80
2023/12/01 02:38:35;;;;;;;;;;;2.70;99.90;;;;;;5064531;28;20364;-80
2023/12/01 02:41:03;;;;;;;;;;;2.60;99.90;;;;;;5064975;28;19982;-81
2023/12/01 02:43:29;;;;;;;;;;;2.70;99.90;;;;;;5064709;28;19986;-80
2023/12/01 02:45:56;;;;;;;;;;;2.70;99.90;;;;;;5070072;28;19999;-79
2023/12/01 02:48:23;;;;;;;;;;;2.70;99.90;;;;;;5085200;28;19978;-79
2023/12/01 02:50:49;;;;;;;;;;;2.70;99.90;;;;;;5081891;28;19979;-80
2023/12/01 02:53:16;;;;;;;;;;;2.70;99.90;;;;;;5080676;28;19987;-81
2023/12/01 02:55:43;;;;;;;;;;;2.70;99.90;;;;;;5083281;28;20620;-80
2023/12/01 02:58:11;;;;;;;;;;;2.70;99.90;;;;;;5086801;28;20069;-80
2023/12/01 03:00:42;;;;;;;;;;;2.70;99.90;;;;;;5081430;28;20057;-80
2023/12/01 03:03:09;;;;;;;;;;;2.70;99.90;;;;;;5067976;28;19988;-79
2023/12/01 03:05:36;;;;;;;;;;;2.70;99.90;;;;;;5064188;28;19995;-80
2023/12/01 03:14:11;;;;;;;;;;;2.60;99.90;;;;;;5055069;28;20027;-80
2023/12/01 03:16:37;;;;;;;;;;;2.70;99.90;;;;;;5060450;28;20089;-79
2023/12/01 03:19:08;;;;;;;;;;;2.70;99.90;;;;;;5058126;28;19983;-79
2023/12/01 03:21:35;;;;;;;;;;;2.60;99.90;;;;;;5062479;28;20029;-79
2023/12/01 03:24:01;;;;;;;;;;;2.70;99.90;;;;;;5055760;28;19999;-79
2023/12/01 03:26:28;;;;;;;;;;;2.70;99.90;;;;;;5065033;28;19979;-79
2023/12/01 03:28:54;;;;;;;;;;;2.70;99.90;;;;;;5055138;28;20475;-79
2023/12/01 03:31:22;;;;;;;;;;;2.70;99.90;;;;;;5066283;28;20570;-78
2023/12/01 03:33:49;;;;;;;;;;;2.60;99.90;;;;;;5078449;28;19999;-79
2023/12/01 03:36:15;;;;;;;;;;;2.70;99.90;;;;;;5080210;28;19995;-78
2023/12/01 03:38:42;;;;;;;;;;;2.70;99.90;;;;;;5080652;28;19982;-79
2023/12/01 03:41:08;;;;;;;;;;;2.60;99.90;;;;;;5075787;28;19979;-77
2023/12/01 03:43:35;;;;;;;;;;;2.70;99.90;;;;;;5080257;28;20010;-79
2023/12/01 03:46:03;;;;;;;;;;;2.60;99.90;;;;;;5072180;28;19987;-78
2023/12/01 03:48:33;;;;;;;;;;;2.60;99.90;;;;;;5063948;28;20011;-78
2023/12/01 03:50:59;;;;;;;;;;;2.70;99.90;;;;;;5066381;28;20490;-78
2023/12/01 03:53:26;;;;;;;;;;;2.70;99.90;;;;;;5065992;28;20362;-78
2023/12/01 03:55:52;;;;;;;;;;;2.60;99.90;;;;;;5066441;28;19983;-78
2023/12/01 03:58:19;;;;;;;;;;;2.70;99.90;;;;;;5067929;28;19979;-78
2023/12/01 04:00:45;;;;;;;;;;;2.60;99.90;;;;;;5057528;28;19995;-77
2023/12/01 04:03:13;;;;;;;;;;;2.60;99.90;;;;;;5083500;28;20191;-78
2023/12/01 04:05:41;;;;;;;;;;;2.60;99.90;;;;;;5079070;28;19994;-78
2023/12/01 04:08:07;;;;;;;;;;;2.60;99.90;;;;;;5077181;28;19971;-78
2023/12/01 04:10:34;;;;;;;;;;;2.60;99.90;;;;;;5075396;28;19976;-78
2023/12/01 04:13:07;;;;;;;;;;;2.60;99.90;;;;;;5081594;28;19975;-78
2023/12/01 04:15:34;;;;;;;;;;;2.60;99.90;;;;;;5065671;28;20003;-77
2023/12/01 04:18:06;;;;;;;;;;;2.60;99.90;;;;;;5063763;28;19991;-77
2023/12/01 04:20:35;;;;;;;;;;;2.60;99.90;;;;;;5064342;28;20041;-77
2023/12/01 04:23:04;;;;;;;;;;;2.60;99.90;;;;;;5064885;28;19993;-77
2023/12/01 04:25:31;;;;;;;;;;;2.60;99.90;;;;;;5064387;28;20002;-77
2023/12/01 04:27:58;;;;;;;;;;;2.70;99.90;;;;;;5064731;28;19975;-78
2023/12/01 04:30:25;;;;;;;;;;;2.60;99.90;;;;;;5062994;28;19990;-78
2023/12/01 04:32:53;;;;;;;;;;;2.60;99.90;;;;;;5065283;28;19986;-78
2023/12/01 04:35:20;;;;;;;;;;;2.60;99.90;;;;;;5061686;28;20002;-78
2023/12/01 04:37:46;;;;;;;;;;;2.60;99.90;;;;;;5062756;28;20026;-77
2023/12/01 04:40:15;;;;;;;;;;;2.60;99.90;;;;;;5063206;28;20117;-77
2023/12/01 04:42:43;;;;;;;;;;;2.60;99.90;;;;;;5062490;28;20105;-78
2023/12/01 04:45:11;;;;;;;;;;;2.60;99.90;;;;;;5061769;28;20498;-77
2023/12/01 04:47:38;;;;;;;;;;;2.60;99.90;;;;;;5064545;28;19982;-78
2023/12/01 04:50:12;;;;;;;;;;;2.60;99.90;;;;;;5063504;28;19979;-78
2023/12/01 04:52:39;;;;;;;;;;;2.60;99.90;;;;;;5063820;28;19975;-77
2023/12/01 04:55:06;;;;;;;;;;;2.60;99.90;;;;;;5063616;28;21023;-78
2023/12/01 04:57:34;;;;;;;;;;;2.60;99.90;;;;;;5062783;28;19995;-77
2023/12/01 05:00:02;;;;;;;;;;;2.60;99.90;;;;;;5062853;28;21587;-79
2023/12/01 05:02:29;;;;;;;;;;;2.60;99.90;;;;;;5060701;28;20044;-79
2023/12/01 05:04:55;;;;;;;;;;;2.60;99.90;;;;;;5063587;28;20868;-78
2023/12/01 05:07:22;;;;;;;;;;;2.60;99.90;;;;;;5063136;28;19979;-78
2023/12/01 05:09:49;;;;;;;;;;;2.60;99.90;;;;;;5062676;28;20496;-80
2023/12/01 05:12:15;;;;;;;;;;;2.60;99.90;;;;;;5063157;28;19984;-78
2023/12/01 05:14:43;;;;;;;;;;;2.60;99.90;;;;;;5066350;28;19998;-79
2023/12/01 05:17:10;;;;;;;;;;;2.60;99.90;;;;;;5078853;28;20002;-79
2023/12/01 05:19:37;;;;;;;;;;;2.60;99.90;;;;;;5078329;28;19976;-78
2023/12/01 05:22:03;;;;;;;;;;;2.60;99.90;;;;;;5074597;28;19976;-78
2023/12/01 05:24:30;;;;;;;;;;;2.60;99.90;;;;;;5073991;28;19991;-78
2023/12/01 05:26:57;;;;;;;;;;;2.60;99.90;;;;;;5082147;28;19975;-79
2023/12/01 05:29:23;;;;;;;;;;;2.60;99.90;;;;;;5074457;28;19983;-78
2023/12/01 05:31:51;;;;;;;;;;;2.60;99.90;;;;;;5062521;28;20002;-78
2023/12/01 05:34:17;;;;;;;;;;;2.60;99.90;;;;;;5063685;28;19995;-78
2023/12/01 05:36:44;;;;;;;;;;;2.60;99.90;;;;;;5066085;28;19998;-78
2023/12/01 05:39:12;;;;;;;;;;;2.60;99.90;;;;;;5061400;28;19984;-77
2023/12/01 05:41:39;;;;;;;;;;;2.60;99.90;;;;;;5064331;28;19995;-80
2023/12/01 05:44:05;;;;;;;;;;;2.60;99.90;;;;;;5061352;28;20488;-80
2023/12/01 05:46:32;;;;;;;;;;;2.50;99.90;;;;;;5070316;28;19999;-79
2023/12/01 05:49:02;;;;;;;;;;;2.60;99.90;;;;;;5079275;28;20126;-78
2023/12/01 05:51:29;;;;;;;;;;;2.60;99.90;;;;;;5075332;28;19978;-80
2023/12/01 05:53:56;;;;;;;;;;;2.60;99.90;;;;;;5076469;28;20509;-80
2023/12/01 05:56:23;;;;;;;;;;;2.50;99.90;;;;;;5076246;28;20014;-79
2023/12/01 05:58:49;;;;;;;;;;;2.60;99.90;;;;;;5078281;28;20120;-77
2023/12/01 06:01:16;;;;;;;;;;;2.50;99.90;;;;;;5076392;28;19971;-76
2023/12/01 06:03:42;;;;;;;;;;;2.50;99.90;;;;;;5080874;28;20049;-79
2023/12/01 06:06:11;;;;;;;;;;;2.50;99.90;;;;;;5086272;28;19984;-80
2023/12/01 06:08:37;;;;;;;;;;;2.50;99.90;;;;;;5082456;28;19987;-79
2023/12/01 06:11:05;;;;;;;;;;;2.50;99.90;;;;;;5081851;28;19984;-79
2023/12/01 06:13:32;;;;;;;;;;;2.50;99.90;;;;;;5083375;28;20008;-79
2023/12/01 06:15:58;;;;;;;;;;;2.50;99.90;;;;;;5082836;28;19996;-78
2023/12/01 06:18:29;;;;;;;;;;;2.50;99.90;;;;;;5083122;28;20653;-78
2023/12/01 06:20:56;;;;;;;;;;;2.50;99.90;;;;;;5083034;28;20864;-78
2023/12/01 06:23:24;;;;;;;;;;;2.50;99.90;;;;;;5085529;28;20407;-78
2023/12/01 06:25:50;;;;;;;;;;;2.50;99.90;;;;;;5085908;28;20010;-77
2023/12/01 06:28:17;;;;;;;;;;;2.50;99.90;;;;;;5086135;28;20278;-77
2023/12/01 06:30:43;;;;;;;;;;;2.50;99.90;;;;;;5081946;28;20618;-77
2023/12/01 06:33:10;;;;;;;;;;;2.60;99.90;;;;;;5084290;28;20464;-78
2023/12/01 06:35:37;;;;;;;;;;;2.50;99.90;;;;;;5081649;28;20501;-79
2023/12/01 06:38:04;;;;;;;;;;;2.50;99.90;;;;;;5076196;28;19988;-78
2023/12/01 06:40:33;;;;;;;;;;;2.50;99.90;;;;;;5080468;28;20013;-69
2023/12/01 06:42:59;;;;;;;;;;;2.50;99.90;;;;;;5078930;28;19979;-67
2023/12/01 06:45:27;;;;;;;;;;;2.50;99.90;;;;;;5080583;28;20490;-67
2023/12/01 06:47:54;;;;;;;;;;;2.60;99.90;;;;;;5077380;28;19983;-66
2023/12/01 06:50:21;;;;;;;;;;;2.50;99.90;;;;;;5076534;28;19979;-67
2023/12/01 06:52:49;;;;;;;;;;;2.50;99.90;;;;;;5079325;28;19987;-67
2023/12/01 06:55:16;;;;;;;;;;;2.50;99.90;;;;;;5083829;28;19998;-67
2023/12/01 06:57:44;;;;;;;;;;;2.60;99.90;;;;;;5075170;28;20000;-67
2023/12/01 07:00:25;;;;;;;;;;;2.50;99.90;;;;;;5072946;28;20395;-66
2023/12/01 07:02:51;;;;;;;;;;;2.50;99.90;;;;;;5061118;28;20450;-67
2023/12/01 07:05:20;;;;;;;;;;;2.50;99.90;;;;;;5062153;28;20377;-67
2023/12/01 07:07:47;;;;;;;;;;;2.50;99.90;;;;;;5064194;28;20062;-67
2023/12/01 07:10:14;;;;;;;;;;;2.50;99.90;;;;;;5063287;28;19986;-67
2023/12/01 07:12:41;;;;;;;;;;;2.50;99.90;;;;;;5059581;28;19975;-67
2023/12/01 07:15:11;;;;;;;;;;;2.50;99.90;;;;;;5063234;28;20002;-68
2023/12/01 07:17:38;;;;;;;;;;;2.50;99.90;;;;;;5061970;28;20006;-67
2023/12/01 07:20:13;;;;;;;;;;;2.50;99.90;;;;;;5067060;28;19980;-68
2023/12/01 07:22:40;;;;;;;;;;;2.50;99.90;;;;;;5063682;28;19979;-67
2023/12/01 07:25:10;;;;;;;;;;;2.50;99.90;;;;;;5067776;28;19999;-67
2023/12/01 07:27:37;;;;;;;;;;;2.50;99.90;;;;;;5064740;28;19983;-67
2023/12/01 07:30:03;;;;;;;;;;;2.50;99.90;;;;;;5060633;28;20508;-67
2023/12/01 07:32:31;;;;;;;;;;;2.50;99.90;;;;;;5061289;28;20018;-67
2023/12/01 07:34:58;;;;;;;;;;;2.50;99.90;;;;;;5063665;28;19995;-67
2023/12/01 07:37:24;;;;;;;;;;;2.50;99.90;;;;;;5062753;28;19992;-67
2023/12/01 07:39:51;;;;;;;;;;;2.50;99.90;;;;;;5064641;28;19978;-67
2023/12/01 07:42:18;;;;;;;;;;;2.50;99.90;;;;;;5062481;28;19979;-66
2023/12/01 07:44:44;;;;;;;;;;;2.50;99.90;;;;;;5062290;28;20048;-67
2023/12/01 07:47:12;;;;;;;;;;;2.50;99.90;;;;;;5062031;28;19991;-66
2023/12/01 07:49:39;;;;;;;;;;;2.50;99.90;;;;;;5061030;28;20080;-66
2023/12/01 07:52:06;;;;;;;;;;;2.50;99.90;;;;;;5062432;28;20034;-68
2023/12/01 07:54:33;;;;;;;;;;;2.50;99.90;;;;;;5056904;28;20542;-67
2023/12/01 07:56:59;;;;;;;;;;;2.50;99.90;;;;;;5060709;28;19987;-66
2023/12/01 07:59:27;;;;;;;;;;;2.50;99.90;;;;;;5060585;28;19998;-67
2023/12/01 08:01:54;;;;;;;;;;;2.50;99.90;;;;;;5074254;28;19991;-66
2023/12/01 08:04:20;;;;;;;;;;;2.50;99.90;;;;;;5078514;28;20002;-67
2023/12/01 08:06:49;;;;;;;;;;;2.50;99.90;;;;;;5076268;28;19975;-67
2023/12/01 08:09:16;;;;;;;;;;;2.50;99.90;;;;;;5078260;28;19976;-67
2023/12/01 08:11:43;;;;;;;;;;;2.50;99.90;;;;;;5079402;28;19985;-67
2023/12/01 08:14:10;;;;;;;;;;;2.50;99.90;;;;;;5075565;28;19995;-67
2023/12/01 08:16:37;;;;;;;;;;;2.50;99.90;;;;;;5066667;28;20107;-67
2023/12/01 08:19:03;;;;;;;;;;;2.50;99.90;;;;;;5063095;28;19998;-68
2023/12/01 08:21:31;;;;;;;;;;;2.50;99.90;;;;;;5060732;28;19986;-67
2023/12/01 08:23:59;;;;;;;;;;;2.50;99.90;;;;;;5061683;28;20089;-68
2023/12/01 08:26:25;;;;;;;;;;;2.50;99.90;;;;;;5063020;28;20492;-67
2023/12/01 08:28:54;;;;;;;;;;;2.50;99.90;;;;;;5062318;28;19979;-67
2023/12/01 08:31:20;;;;;;;;;;;2.50;99.90;;;;;;5057748;28;20654;-67
2023/12/01 08:33:47;;;;;;;;;;;2.50;99.90;;;;;;5054053;28;20749;-67
2023/12/01 08:36:14;;;;;;;;;;;2.50;99.90;;;;;;5064454;28;20001;-67
2023/12/01 08:38:41;;;;;;;;;;;2.50;99.90;;;;;;5054047;28;20510;-67
2023/12/01 08:41:09;;;;;;;;;;;2.50;99.90;;;;;;5057138;28;19987;-67
2023/12/01 08:43:36;;;;;;;;;;;2.50;99.90;;;;;;5060913;28;19979;-68
2023/12/01 08:46:03;;;;;;;;;;;2.50;99.90;;;;;;5062737;28;19998;-67
2023/12/01 08:48:29;;;;;;;;;;;2.50;99.90;;;;;;5065278;28;20078;-68
2023/12/01 08:50:56;;;;;;;;;;;2.50;99.90;;;;;;5062444;28;19979;-68
2023/12/01 08:53:23;;;;;;;;;;;2.50;99.90;;;;;;5064156;28;20061;-67
2023/12/01 08:55:50;;;;;;;;;;;2.50;99.90;;;;;;5066404;28;19985;-68
2023/12/01 08:58:18;;;;;;;;;;;2.50;99.90;;;;;;5067955;28;21300;-67
2023/12/01 09:00:45;;;;;;;;;;;2.50;99.90;;;;;;5065600;28;20093;-77
2023/12/01 09:03:11;;;;;;;;;;;2.50;99.90;;;;;;5079649;28;19979;-76
2023/12/01 09:05:38;;;;;;;;;;;2.50;99.90;;;;;;5076182;28;19991;-76
2023/12/01 09:08:05;;;;;;;;;;;2.50;99.90;;;;;;5077414;28;19980;-76
2023/12/01 09:10:32;;;;;;;;;;;2.50;99.90;;;;;;5082146;28;19975;-76
2023/12/01 09:12:59;;;;;;;;;;;2.50;99.90;;;;;;5080833;28;19983;-77
2023/12/01 09:15:27;;;;;;;;;;;2.50;99.90;;;;;;5079016;28;20081;-76
2023/12/01 09:17:53;;;;;;;;;;;2.50;99.90;;;;;;5078980;28;20051;-75
2023/12/01 09:20:20;;;;;;;;;;;2.50;99.90;;;;;;5077535;28;19976;-76
2023/12/01 09:22:47;;;;;;;;;;;2.50;99.90;;;;;;5075635;28;19979;-76
2023/12/01 09:25:13;;;;;;;;;;;2.50;99.90;;;;;;5078817;28;20342;-75
2023/12/01 09:27:41;;;;;;;;;;;2.50;99.90;;;;;;5080569;28;19975;-76
2023/12/01 09:30:10;;;;;;;;;;;2.50;99.90;;;;;;5073724;28;20513;-74
2023/12/01 09:32:38;;;;;;;;;;;2.50;99.90;;;;;;5075232;28;20037;-74
2023/12/01 09:35:05;;;;;;;;;;;2.50;99.90;;;;;;5077929;28;19991;-75
2023/12/01 09:37:32;;;;;;;;;;;2.50;99.90;;;;;;5080163;28;19979;-75
2023/12/01 09:39:59;;;;;;;;;;;2.50;99.90;;;;;;5082511;28;19997;-75
2023/12/01 09:42:25;;;;;;;;;;;2.50;99.90;;;;;;5076452;28;19983;-73
2023/12/01 09:44:54;;;;;;;;;;;2.50;99.90;;;;;;5073217;28;19999;-74
2023/12/01 09:47:22;;;;;;;;;;;2.50;99.90;;;;;;5081108;28;19995;-74
2023/12/01 09:49:50;;;;;;;;;;;2.50;99.90;;;;;;5082141;28;19989;-74
2023/12/01 09:52:17;;;;;;;;;;;2.50;99.90;;;;;;5081095;28;20075;-74
2023/12/01 09:54:43;;;;;;;;;;;2.50;99.90;;;;;;5079192;28;20081;-74
2023/12/01 09:57:10;;;;;;;;;;;2.50;99.90;;;;;;5076791;28;19987;-74
2023/12/01 09:59:37;;;;;;;;;;;2.50;99.90;;;;;;5079594;28;19998;-74
2023/12/01 10:02:04;;;;;;;;;;;2.50;99.90;;;;;;5072429;28;19991;-74
2023/12/01 10:04:31;;;;;;;;;;;2.50;99.90;;;;;;5077492;28;19995;-75
2023/12/01 10:06:59;;;;;;;;;;;2.50;99.90;;;;;;5077427;28;20002;-73
2023/12/01 10:09:32;;;;;;;;;;;2.50;99.90;;;;;;5078307;28;20440;-74
2023/12/01 10:12:07;;;;;;;;;;;2.60;99.90;;;;;;5076625;28;19985;-75
2023/12/01 10:14:34;;;;;;;;;;;2.60;99.90;;;;;;5076848;28;19994;-74
2023/12/01 10:17:01;;;;;;;;;;;2.50;99.90;;;;;;5059157;28;19999;-74
2023/12/01 10:19:28;;;;;;;;;;;2.60;99.90;;;;;;5055238;28;19992;-74
2023/12/01 10:21:55;;;;;;;;;;;2.60;99.90;;;;;;5053001;28;19979;-73
2023/12/01 10:24:23;;;;;;;;;;;2.60;99.90;;;;;;5056698;28;19991;-74
2023/12/01 10:26:50;;;;;;;;;;;2.60;99.90;;;;;;5052207;28;20034;-74
2023/12/01 10:29:24;;;;;;;;;;;2.60;99.90;;;;;;5057195;28;19975;-74
2023/12/01 10:31:51;;;;;;;;;;;2.60;99.90;;;;;;5060548;28;20023;-74
2023/12/01 10:34:18;;;;;;;;;;;2.60;99.90;;;;;;5062811;28;19991;-74
2023/12/01 10:36:45;;;;;;;;;;;2.60;99.90;;;;;;5061537;28;19975;-74
2023/12/01 10:39:16;;;;;;;;;;;2.60;99.90;;;;;;5061924;28;20491;-74
2023/12/01 10:41:44;;;;;;;;;;;2.60;99.90;;;;;;5061441;28;20508;-74
2023/12/01 10:44:13;;;;;;;;;;;2.70;99.90;;;;;;5061573;28;19992;-73
2023/12/01 10:46:41;;;;;;;;;;;2.60;99.90;;;;;;5073829;28;19991;-74
2023/12/01 10:49:08;;;;;;;;;;;2.60;99.90;;;;;;5073270;28;19979;-74
2023/12/01 10:51:36;;;;;;;;;;;2.60;99.90;;;;;;5078338;28;20372;-74
2023/12/01 10:54:03;;;;;;;;;;;2.70;99.90;;;;;;5077440;28;20010;-74
2023/12/01 10:56:30;;;;;;;;;;;2.70;99.90;;;;;;5080734;28;19979;-73
2023/12/01 10:58:59;;;;;;;;;;;2.70;99.90;;;;;;5078790;28;20117;-73
2023/12/01 11:01:27;;;;;;;;;;;2.70;99.90;;;;;;5077980;28;19991;-73
2023/12/01 11:03:55;;;;;;;;;;;2.70;99.90;;;;;;5073821;28;20552;-74
2023/12/01 11:06:28;;;;;;;;;;;2.70;99.90;;;;;;5077827;28;19986;-74
2023/12/01 11:08:58;;;;;;;;;;;2.70;99.90;;;;;;5072972;28;19979;-73
2023/12/01 11:11:32;;;;;;;;;;;2.70;99.90;;;;;;5073440;28;19975;-73
2023/12/01 11:14:07;;;;;;;;;;;2.70;99.90;;;;;;5074507;28;20074;-73
2023/12/01 11:16:34;;;;;;;;;;;2.70;99.90;;;;;;5075725;28;20004;-74
2023/12/01 11:19:00;;;;;;;;;;;2.70;99.90;;;;;;5075104;28;20023;-74
2023/12/01 11:21:27;;;;;;;;;;;2.70;99.90;;;;;;5076971;28;19983;-74
2023/12/01 11:23:54;;;;;;;;;;;2.70;99.90;;;;;;5075367;28;19992;-74
2023/12/01 11:26:23;;;;;;;;;;;2.70;99.90;;;;;;5075794;28;19975;-74
2023/12/01 11:28:57;;;;;;;;;;;2.80;99.90;;;;;;5078712;28;19985;-74
2023/12/01 11:31:36;;;;;;;;;;;2.80;99.90;;;;;;5072236;28;19999;-74
2023/12/01 11:34:02;;;;;;;;;;;2.70;99.90;;;;;;5075608;28;19994;-75
2023/12/01 11:36:30;;;;;;;;;;;2.80;99.90;;;;;;5078287;28;19993;-74
2023/12/01 11:39:17;;;;;;;;;;;2.70;99.90;;;;;;5075875;28;20749;-74
2023/12/01 11:41:48;;;;;;;;;;;2.70;99.90;;;;;;5073031;28;20307;-75
2023/12/01 11:44:18;;;;;;;;;;;2.80;99.90;;;;;;5075072;28;19995;-73
2023/12/01 11:46:47;;;;;;;;;;;2.80;99.90;;;;;;5066530;28;20002;-74
2023/12/01 11:49:14;;;;;;;;;;;2.80;99.90;;;;;;5058796;28;20504;-74
2023/12/01 11:51:43;;;;;;;;;;;2.80;99.90;;;;;;5057463;28;20397;-74
2023/12/01 11:54:12;;;;;;;;;;;2.80;99.90;;;;;;5058115;28;23486;-74
2023/12/01 11:56:39;;;;;;;;;;;2.80;99.90;;;;;;5061019;28;20665;-74
2023/12/01 11:59:08;;;;;;;;;;;2.80;99.90;;;;;;5054155;28;20023;-74
2023/12/01 12:01:34;;;;;;;;;;;2.80;99.90;;;;;;5066498;28;19990;-74
2023/12/01 12:04:04;;;;;;;;;;;2.80;99.90;;;;;;5079348;28;19995;-74
2023/12/01 12:06:32;;;;;;;;;;;2.80;99.90;;;;;;5075942;28;20456;-74
2023/12/01 12:09:01;;;;;;;;;;;2.80;99.90;;;;;;5076540;28;20466;-74
2023/12/01 12:11:29;;;;;;;;;;;2.80;99.90;;;;;;5073201;28;19975;-74
2023/12/01 12:13:56;;;;;;;;;;;2.80;99.90;;;;;;5079210;28;20026;-74
2023/12/01 12:16:23;;;;;;;;;;;2.80;99.90;;;;;;5076043;28;19995;-74
2023/12/01 12:18:49;;;;;;;;;;;2.80;99.90;;;;;;5076667;28;20044;-74
2023/12/01 12:21:17;;;;;;;;;;;2.80;99.90;;;;;;5077634;28;19982;-74
2023/12/01 12:23:44;;;;;;;;;;;2.80;99.90;;;;;;5075972;28;20028;-74
2023/12/01 12:26:14;;;;;;;;;;;2.80;99.90;;;;;;5077008;28;20061;-74
2023/12/01 12:28:41;;;;;;;;;;;2.80;99.90;;;;;;5073505;28;19982;-73
2023/12/01 12:31:07;;;;;;;;;;;2.80;99.90;;;;;;5073257;28;19998;-74
2023/12/01 12:33:36;;;;;;;;;;;2.80;99.90;;;;;;5074987;28;19975;-73
2023/12/01 12:36:03;;;;;;;;;;;2.80;99.90;;;;;;5074864;28;20010;-74
2023/12/01 12:38:31;;;;;;;;;;;2.80;99.90;;;;;;5074737;28;21368;-74
2023/12/01 12:40:58;;;;;;;;;;;2.80;99.90;;;;;;5070389;28;20780;-74
2023/12/01 12:43:25;;;;;;;;;;;2.90;99.90;;;;;;5075054;28;19982;-74
2023/12/01 12:45:51;;;;;;;;;;;2.80;99.90;;;;;;5076038;28;20010;-74
2023/12/01 12:48:18;;;;;;;;;;;2.90;99.90;;;;;;5076871;28;19983;-75
2023/12/01 12:50:47;;;;;;;;;;;2.80;99.90;;;;;;5077514;28;19975;-74
2023/12/01 12:53:13;;;;;;;;;;;2.90;99.90;;;;;;5078447;28;19987;-75
2023/12/01 12:55:41;;;;;;;;;;;2.90;99.90;;;;;;5076371;28;20453;-73
2023/12/01 12:58:08;;;;;;;;;;;2.90;99.90;;;;;;5076507;28;19975;-75
2023/12/01 13:00:34;;;;;;;;;;;2.80;99.90;;;;;;5074765;28;20772;-75
2023/12/01 13:03:01;;;;;;;;;;;2.90;99.90;;;;;;5075363;28;20084;-74
2023/12/01 13:05:27;;;;;;;;;;;2.90;99.90;;;;;;5074612;28;19998;-75
2023/12/01 13:07:54;;;;;;;;;;;2.90;99.90;;;;;;5075079;28;20065;-73
2023/12/01 13:10:21;;;;;;;;;;;2.90;99.90;;;;;;5076087;28;19994;-74
2023/12/01 13:12:49;;;;;;;;;;;2.90;99.90;;;;;;5077290;28;19979;-73
2023/12/01 13:15:16;;;;;;;;;;;2.80;99.90;;;;;;5075107;28;19991;-74
2023/12/01 13:17:42;;;;;;;;;;;2.90;99.90;;;;;;5070344;28;19979;-74
2023/12/01 13:20:09;;;;;;;;;;;2.90;99.90;;;;;;5077556;28;20342;-74
2023/12/01 13:22:36;;;;;;;;;;;2.90;99.90;;;;;;5072205;28;19982;-73
2023/12/01 13:25:03;;;;;;;;;;;2.90;99.90;;;;;;5070555;28;19998;-73
2023/12/01 13:27:30;;;;;;;;;;;2.90;99.90;;;;;;5067808;28;19979;-73
2023/12/01 13:29:58;;;;;;;;;;;2.90;99.90;;;;;;5073384;28;20015;-73
2023/12/01 13:32:25;;;;;;;;;;;2.90;99.90;;;;;;5075247;28;20006;-73
2023/12/01 13:34:51;;;;;;;;;;;2.90;99.90;;;;;;5073302;28;19998;-74
2023/12/01 13:37:18;;;;;;;;;;;2.90;99.90;;;;;;5074613;28;19975;-74
2023/12/01 13:39:44;;;;;;;;;;;2.90;99.90;;;;;;5078275;28;19991;-73
2023/12/01 13:42:12;;;;;;;;;;;2.90;99.90;;;;;;5080203;28;19982;-73
2023/12/01 13:44:38;;;;;;;;;;;2.90;99.90;;;;;;5078137;28;20002;-73
2023/12/01 13:47:06;;;;;;;;;;;2.90;99.90;;;;;;5078374;28;20006;-74
2023/12/01 13:49:33;;;;;;;;;;;2.90;99.90;;;;;;5078652;28;19979;-73
2023/12/01 13:51:59;;;;;;;;;;;2.90;99.90;;;;;;5081983;28;20010;-73
2023/12/01 13:54:27;;;;;;;;;;;2.90;99.90;;;;;;5078788;28;20376;-74
2023/12/01 13:56:53;;;;;;;;;;;2.90;99.90;;;;;;5080242;28;20605;-73
2023/12/01 13:59:20;;;;;;;;;;;2.90;99.90;;;;;;5078564;28;20436;-74
2023/12/01 14:01:47;;;;;;;;;;;2.90;99.90;;;;;;5067580;28;19995;-73
2023/12/01 14:04:15;;;;;;;;;;;2.90;99.90;;;;;;5061357;28;20083;-73
2023/12/01 14:06:42;;;;;;;;;;;2.90;99.90;;;;;;5060688;28;19983;-73
2023/12/01 14:09:09;;;;;;;;;;;2.90;99.90;;;;;;5063785;28;19982;-73
2023/12/01 14:11:35;;;;;;;;;;;2.90;99.90;;;;;;5064350;28;20519;-74
2023/12/01 14:14:02;;;;;;;;;;;2.90;99.90;;;;;;5063451;28;19992;-74
2023/12/01 14:16:29;;;;;;;;;;;2.90;99.90;;;;;;5072212;28;19991;-73
2023/12/01 14:18:55;;;;;;;;;;;2.90;99.90;;;;;;5083058;28;19979;-73
2023/12/01 14:21:23;;;;;;;;;;;2.90;99.90;;;;;;5082121;28;19994;-74
2023/12/01 14:23:50;;;;;;;;;;;2.90;99.90;;;;;;5079775;28;20364;-73
2023/12/01 14:26:16;;;;;;;;;;;2.90;99.90;;;;;;5079358;28;19979;-73
2023/12/01 14:28:43;;;;;;;;;;;2.90;99.90;;;;;;5080878;28;19979;-73
2023/12/01 14:31:10;;;;;;;;;;;2.90;99.90;;;;;;5077541;28;21242;-74
2023/12/01 14:33:36;;;;;;;;;;;2.90;99.90;;;;;;5080238;28;20609;-74
2023/12/01 14:36:03;;;;;;;;;;;2.90;99.90;;;;;;5079885;28;19988;-74
2023/12/01 14:38:31;;;;;;;;;;;2.90;99.90;;;;;;5077501;28;20356;-77